createdAt,value
2017-01-13T00:00:19.666Z,73.25
2017-01-13T00:01:00.208Z,71.91
2017-01-13T00:01:40.672Z,71.53
2017-01-13T00:02:21.143Z,70.87
2017-01-13T00:03:01.666Z,70.97
2017-01-13T00:03:42.120Z,70.2
2017-01-13T00:04:22.634Z,69.25
2017-01-13T00:05:04.101Z,68.87
2017-01-13T00:05:44.573Z,69.06
2017-01-13T00:06:25.126Z,68.21
2017-01-13T00:07:05.630Z,68.87
2017-01-13T00:07:46.329Z,68.77
2017-01-13T00:08:26.972Z,68.3
2017-01-13T00:09:11.165Z,67.63
2017-01-13T00:09:51.766Z,67.82
2017-01-13T00:10:32.188Z,68.21
2017-01-13T00:11:12.681Z,67.63
2017-01-13T00:11:53.161Z,67.63
2017-01-13T00:12:33.654Z,67.63
2017-01-13T00:13:14.134Z,66.78
2017-01-13T00:13:54.678Z,66.39
2017-01-13T00:14:35.117Z,65.92
2017-01-13T00:15:15.615Z,66.02
2017-01-13T00:15:56.145Z,65.92
2017-01-13T00:16:36.620Z,66.02
2017-01-13T00:17:17.129Z,66.11
2017-01-13T00:17:57.709Z,65.45
2017-01-13T00:18:38.275Z,65.92
2017-01-13T00:19:18.798Z,65.73
2017-01-13T00:19:59.252Z,65.92
2017-01-13T00:20:39.690Z,65.92
2017-01-13T00:21:20.360Z,65.92
2017-01-13T00:22:00.826Z,66.02
2017-01-13T00:22:41.229Z,66.87
2017-01-13T00:23:21.772Z,66.02
2017-01-13T00:24:02.247Z,66.02
2017-01-13T00:24:42.668Z,66.39
2017-01-13T00:25:23.161Z,67.07
2017-01-13T00:26:03.673Z,66.68
2017-01-13T00:26:44.124Z,66.3
2017-01-13T00:27:24.628Z,65.92
2017-01-13T00:28:05.113Z,65.16
2017-01-13T00:28:45.626Z,64.97
2017-01-13T00:29:26.164Z,64.69
2017-01-13T00:30:06.771Z,64.56
2017-01-13T00:30:47.437Z,64.69
2017-01-13T00:31:27.875Z,64.31
2017-01-13T00:32:08.403Z,63.83
2017-01-13T00:32:48.896Z,63.6
2017-01-13T00:33:29.383Z,63.7
2017-01-13T00:34:09.840Z,63.13
2017-01-13T00:34:50.331Z,63.13
2017-01-13T00:35:30.851Z,63.04
2017-01-13T00:36:11.304Z,63.45
2017-01-13T00:36:51.809Z,63.26
2017-01-13T00:37:32.293Z,63.35
2017-01-13T00:38:12.841Z,63.79
2017-01-13T00:38:53.227Z,63.89
2017-01-13T00:39:33.763Z,62.65
2017-01-13T00:40:14.247Z,63.13
2017-01-13T00:40:54.779Z,63.6
2017-01-13T00:41:35.233Z,63.51
2017-01-13T00:42:15.713Z,63.54
2017-01-13T00:42:56.246Z,63.7
2017-01-13T00:43:36.734Z,63.32
2017-01-13T00:44:17.307Z,63.83
2017-01-13T00:44:57.729Z,63.51
2017-01-13T00:45:38.190Z,63.79
2017-01-13T00:46:18.732Z,63.42
2017-01-13T00:46:59.187Z,63.64
2017-01-13T00:47:39.636Z,63.99
2017-01-13T00:48:20.143Z,62.65
2017-01-13T00:49:00.658Z,62.65
2017-01-13T00:49:41.160Z,62.08
2017-01-13T00:50:21.593Z,61.9
2017-01-13T00:51:02.134Z,62.46
2017-01-13T00:51:42.633Z,61.99
2017-01-13T00:52:23.088Z,60.94
2017-01-13T00:53:03.601Z,60.75
2017-01-13T00:53:44.100Z,61.04
2017-01-13T00:54:24.567Z,60.66
2017-01-13T00:55:05.126Z,61.13
2017-01-13T00:55:45.645Z,61.04
2017-01-13T00:56:26.357Z,60.47
2017-01-13T00:57:06.867Z,60.38
2017-01-13T00:57:47.371Z,60.66
2017-01-13T00:58:27.863Z,60.85
2017-01-13T00:59:08.470Z,61.23
2017-01-13T00:59:48.829Z,60.57
2017-01-13T01:00:29.313Z,60.66
2017-01-13T01:01:09.870Z,60.47
2017-01-13T01:01:50.304Z,60.57
2017-01-13T01:02:30.835Z,60.66
2017-01-13T01:03:11.431Z,60.57
2017-01-13T01:03:51.867Z,60.66
2017-01-13T01:04:32.320Z,60.47
2017-01-13T01:05:12.767Z,60.09
2017-01-13T01:05:53.299Z,59.33
2017-01-13T01:06:33.796Z,59.52
2017-01-13T01:07:14.289Z,59.33
2017-01-13T01:07:54.793Z,59.42
2017-01-13T01:08:35.230Z,59.52
2017-01-13T01:09:15.769Z,59.8
2017-01-13T01:09:56.209Z,60.66
2017-01-13T01:10:36.691Z,60.28
2017-01-13T01:11:17.197Z,60.09
2017-01-13T01:11:57.710Z,61.04
2017-01-13T01:12:38.147Z,60.57
2017-01-13T01:13:18.753Z,60.75
2017-01-13T01:13:59.185Z,60.66
2017-01-13T01:14:39.723Z,59.9
2017-01-13T01:15:20.244Z,59.71
2017-01-13T01:16:00.759Z,59.71
2017-01-13T01:16:41.264Z,60.28
2017-01-13T01:17:21.815Z,60.38
2017-01-13T01:18:02.305Z,60.38
2017-01-13T01:18:42.728Z,60.66
2017-01-13T01:19:23.264Z,59.8
2017-01-13T01:20:03.763Z,59.14
2017-01-13T01:20:44.240Z,59.52
2017-01-13T01:21:25.064Z,59.01
2017-01-13T01:22:05.558Z,58.47
2017-01-13T01:22:46.001Z,58.44
2017-01-13T01:23:26.522Z,58.47
2017-01-13T01:24:06.963Z,58.57
2017-01-13T01:24:47.533Z,58.76
2017-01-13T01:25:27.989Z,58.47
2017-01-13T01:26:08.525Z,58.47
2017-01-13T01:26:49.047Z,58.28
2017-01-13T01:27:29.547Z,58.18
2017-01-13T01:28:10.085Z,58.28
2017-01-13T01:28:50.584Z,58.09
2017-01-13T01:29:31.069Z,58.18
2017-01-13T01:30:11.550Z,58.35
2017-01-13T01:30:52.033Z,58.37
2017-01-13T01:31:32.534Z,58.37
2017-01-13T01:32:12.992Z,58.28
2017-01-13T01:32:53.523Z,58.47
2017-01-13T01:33:33.997Z,58.28
2017-01-13T01:34:14.470Z,58.37
2017-01-13T01:34:55.121Z,58.18
2017-01-13T01:35:35.449Z,58.37
2017-01-13T01:36:15.897Z,57.9
2017-01-13T01:36:56.392Z,58.44
2017-01-13T01:37:36.954Z,58.25
2017-01-13T01:38:17.416Z,57.24
2017-01-13T01:38:57.999Z,57.52
2017-01-13T01:39:38.414Z,57.68
2017-01-13T01:40:18.944Z,57.43
2017-01-13T01:40:59.746Z,57.43
2017-01-13T01:41:40.277Z,57.14
2017-01-13T01:42:20.755Z,56.76
2017-01-13T01:43:01.295Z,56.95
2017-01-13T01:43:41.683Z,56.76
2017-01-13T01:44:22.215Z,56.57
2017-01-13T01:45:02.643Z,56.54
2017-01-13T01:45:43.178Z,56.63
2017-01-13T01:46:23.677Z,56.85
2017-01-13T01:47:04.187Z,56.45
2017-01-13T01:47:44.696Z,56.45
2017-01-13T01:48:25.201Z,57.3
2017-01-13T01:49:05.738Z,57.11
2017-01-13T01:49:46.160Z,56.57
2017-01-13T01:50:26.666Z,56.76
2017-01-13T01:51:07.229Z,57.14
2017-01-13T01:51:47.666Z,56.67
2017-01-13T01:52:28.165Z,56.76
2017-01-13T01:53:08.721Z,56.95
2017-01-13T01:53:49.214Z,56.76
2017-01-13T01:54:29.698Z,56.95
2017-01-13T01:55:10.200Z,57.14
2017-01-13T01:55:50.666Z,57.14
2017-01-13T01:56:31.190Z,57.24
2017-01-13T01:57:11.696Z,57.43
2017-01-13T01:57:52.252Z,57.24
2017-01-13T01:58:32.749Z,56.95
2017-01-13T01:59:13.400Z,57.33
2017-01-13T01:59:53.912Z,57.04
2017-01-13T02:00:34.359Z,57.11
2017-01-13T02:01:14.861Z,57.11
2017-01-13T02:01:55.364Z,57.04
2017-01-13T02:02:35.864Z,57.04
2017-01-13T02:03:16.359Z,57.33
2017-01-13T02:03:56.884Z,57.14
2017-01-13T02:04:37.365Z,56.85
2017-01-13T02:05:17.855Z,57.04
2017-01-13T02:05:58.334Z,57.14
2017-01-13T02:06:38.834Z,57.24
2017-01-13T02:07:19.430Z,57.43
2017-01-13T02:08:00.084Z,57.14
2017-01-13T02:08:40.528Z,57.43
2017-01-13T02:09:21.092Z,57.14
2017-01-13T02:10:01.572Z,57.04
2017-01-13T02:10:41.991Z,57.14
2017-01-13T02:11:22.524Z,57.04
2017-01-13T02:12:03.058Z,57.14
2017-01-13T02:12:43.521Z,57.04
2017-01-13T02:13:24.034Z,57.24
2017-01-13T02:14:04.552Z,57.71
2017-01-13T02:14:45.055Z,57.81
2017-01-13T02:15:25.586Z,57.43
2017-01-13T02:16:06.242Z,57.33
2017-01-13T02:16:46.746Z,58.28
2017-01-13T02:17:27.297Z,57.43
2017-01-13T02:18:07.863Z,57.52
2017-01-13T02:18:48.360Z,57.04
2017-01-13T02:19:28.868Z,57.14
2017-01-13T02:20:09.372Z,57.14
2017-01-13T02:20:49.863Z,57.04
2017-01-13T02:21:30.370Z,57.33
2017-01-13T02:22:11.034Z,57.14
2017-01-13T02:22:52.258Z,56.95
2017-01-13T02:23:32.000Z,57.14
2017-01-13T02:24:12.455Z,57.04
2017-01-13T02:24:53.015Z,57.14
2017-01-13T02:25:33.626Z,57.43
2017-01-13T02:26:14.184Z,58
2017-01-13T02:26:54.706Z,58.66
2017-01-13T02:27:35.180Z,57.9
2017-01-13T02:28:15.739Z,58.06
2017-01-13T02:28:56.315Z,57.97
2017-01-13T02:29:36.834Z,58.37
2017-01-13T02:30:17.426Z,58.28
2017-01-13T02:30:57.893Z,58.28
2017-01-13T02:31:38.469Z,58.28
2017-01-13T02:32:19.008Z,58.37
2017-01-13T02:32:59.579Z,58.37
2017-01-13T02:33:40.104Z,58.28
2017-01-13T02:34:20.559Z,58.37
2017-01-13T02:35:01.108Z,58
2017-01-13T02:35:41.564Z,58.37
2017-01-13T02:36:22.146Z,58
2017-01-13T02:37:02.666Z,58.37
2017-01-13T02:37:43.182Z,58.66
2017-01-13T02:38:23.823Z,58.66
2017-01-13T02:39:04.318Z,58.76
2017-01-13T02:39:44.794Z,58.37
2017-01-13T02:40:25.380Z,58.47
2017-01-13T02:41:05.924Z,58.66
2017-01-13T02:41:47.226Z,58.37
2017-01-13T02:42:27.780Z,58.28
2017-01-13T02:43:08.281Z,58.85
2017-01-13T02:43:48.755Z,58.66
2017-01-13T02:44:29.252Z,58.76
2017-01-13T02:45:09.736Z,58.47
2017-01-13T02:45:50.318Z,58.28
2017-01-13T02:46:30.941Z,58.37
2017-01-13T02:47:11.506Z,58.37
2017-01-13T02:47:52.014Z,58.37
2017-01-13T02:48:32.483Z,57.71
2017-01-13T02:49:13.025Z,57.81
2017-01-13T02:49:53.503Z,57.43
2017-01-13T02:50:34.054Z,57.43
2017-01-13T02:51:14.678Z,57.3
2017-01-13T02:51:55.185Z,57.52
2017-01-13T02:52:35.686Z,58
2017-01-13T02:53:16.174Z,57.04
2017-01-13T02:53:56.691Z,57.33
2017-01-13T02:54:37.180Z,57.59
2017-01-13T02:55:17.718Z,57.59
2017-01-13T02:55:58.220Z,57.11
2017-01-13T02:56:38.750Z,57.21
2017-01-13T02:57:19.265Z,57.4
2017-01-13T02:57:59.848Z,57.4
2017-01-13T02:58:40.239Z,58.54
2017-01-13T02:59:20.810Z,58.06
2017-01-13T03:00:01.274Z,58.35
2017-01-13T03:00:42.068Z,57.78
2017-01-13T03:01:22.620Z,57.4
2017-01-13T03:02:03.164Z,57.02
2017-01-13T03:02:43.810Z,57.3
2017-01-13T03:03:25.917Z,57.11
2017-01-13T03:04:08.171Z,57.4
2017-01-13T03:04:48.902Z,57.87
2017-01-13T03:05:29.526Z,57.97
2017-01-13T03:06:09.918Z,57.78
2017-01-13T03:06:50.396Z,58.44
2017-01-13T03:07:30.879Z,58.25
2017-01-13T03:08:11.365Z,58.54
2017-01-13T03:08:51.990Z,58.25
2017-01-13T03:09:32.472Z,58.63
2017-01-13T03:10:12.959Z,59.3
2017-01-13T03:10:53.430Z,58.92
2017-01-13T03:11:33.942Z,58.54
2017-01-13T03:12:14.390Z,58.63
2017-01-13T03:12:54.865Z,58.73
2017-01-13T03:13:35.338Z,58.61
2017-01-13T03:14:15.876Z,58.63
2017-01-13T03:14:56.303Z,58.35
2017-01-13T03:15:36.924Z,58.22
2017-01-13T03:16:17.497Z,58.22
2017-01-13T03:16:57.913Z,58.22
2017-01-13T03:17:38.458Z,58.89
2017-01-13T03:18:18.922Z,58.7
2017-01-13T03:18:59.470Z,58.8
2017-01-13T03:19:39.953Z,58.98
2017-01-13T03:20:20.495Z,59.17
2017-01-13T03:21:00.910Z,58.8
2017-01-13T03:21:41.380Z,58.8
2017-01-13T03:22:21.925Z,58.61
2017-01-13T03:23:02.470Z,58.61
2017-01-13T03:23:43.049Z,58.61
2017-01-13T03:24:23.543Z,58.7
2017-01-13T03:25:04.004Z,58.32
2017-01-13T03:25:44.518Z,58.32
2017-01-13T03:26:25.035Z,58.32
2017-01-13T03:27:05.394Z,58.7
2017-01-13T03:27:46.051Z,58.22
2017-01-13T03:28:26.546Z,58.8
2017-01-13T03:29:07.144Z,58.22
2017-01-13T03:29:47.939Z,57.84
2017-01-13T03:30:28.660Z,57.37
2017-01-13T03:31:09.467Z,57.65
2017-01-13T03:31:50.169Z,57.28
2017-01-13T03:32:30.689Z,57.09
2017-01-13T03:33:11.104Z,57.46
2017-01-13T03:33:51.598Z,57.46
2017-01-13T03:34:32.190Z,57.56
2017-01-13T03:35:12.790Z,57.09
2017-01-13T03:35:53.639Z,57.18
2017-01-13T03:36:33.938Z,57.18
2017-01-13T03:37:14.716Z,57.18
2017-01-13T03:37:55.185Z,57.46
2017-01-13T03:38:35.668Z,56.99
2017-01-13T03:39:16.165Z,57.09
2017-01-13T03:39:56.771Z,57.09
2017-01-13T03:40:37.190Z,57.56
2017-01-13T03:41:17.678Z,57.56
2017-01-13T03:41:58.205Z,57.75
2017-01-13T03:42:38.736Z,58.32
2017-01-13T03:43:19.214Z,57.75
2017-01-13T03:43:59.697Z,57.46
2017-01-13T03:44:40.164Z,57.28
2017-01-13T03:45:20.632Z,57.84
2017-01-13T03:46:01.157Z,57.75
2017-01-13T03:46:41.672Z,57.65
2017-01-13T03:47:22.129Z,57.56
2017-01-13T03:48:02.636Z,58.22
2017-01-13T03:48:43.089Z,58.32
2017-01-13T03:49:23.618Z,58.32
2017-01-13T03:50:04.030Z,58.22
2017-01-13T03:50:44.678Z,57.46
2017-01-13T03:51:25.168Z,57.75
2017-01-13T03:52:05.676Z,57.56
2017-01-13T03:52:46.114Z,57.84
2017-01-13T03:53:26.609Z,57.56
2017-01-13T03:54:07.117Z,57.75
2017-01-13T03:54:47.586Z,57.56
2017-01-13T03:55:28.047Z,57.56
2017-01-13T03:56:08.600Z,58.22
2017-01-13T03:56:49.064Z,57.65
2017-01-13T03:57:29.531Z,58.13
2017-01-13T03:58:10.051Z,57.75
2017-01-13T03:58:50.486Z,58.22
2017-01-13T03:59:31.008Z,58.32
2017-01-13T04:00:11.475Z,57.75
2017-01-13T04:00:51.946Z,57.56
2017-01-13T04:01:32.424Z,58.22
2017-01-13T04:02:12.891Z,58.22
2017-01-13T04:02:53.461Z,58.13
2017-01-13T04:03:33.885Z,58.7
2017-01-13T04:04:14.424Z,58.61
2017-01-13T04:04:54.835Z,58.8
2017-01-13T04:05:35.320Z,58.61
2017-01-13T04:06:15.822Z,58.61
2017-01-13T04:06:56.302Z,58.7
2017-01-13T04:07:36.819Z,57.46
2017-01-13T04:08:17.299Z,58.32
2017-01-13T04:08:57.769Z,58.51
2017-01-13T04:09:38.277Z,58.22
2017-01-13T04:10:18.760Z,58.41
2017-01-13T04:10:59.178Z,58.98
2017-01-13T04:11:39.713Z,59.17
2017-01-13T04:12:20.221Z,58.98
2017-01-13T04:13:00.709Z,58.51
2017-01-13T04:13:41.216Z,58.32
2017-01-13T04:14:21.651Z,58.98
2017-01-13T04:15:02.155Z,59.17
2017-01-13T04:15:42.684Z,59.08
2017-01-13T04:16:23.086Z,59.17
2017-01-13T04:17:03.637Z,59.27
2017-01-13T04:17:44.160Z,58.61
2017-01-13T04:18:24.630Z,58.98
2017-01-13T04:19:05.090Z,59.36
2017-01-13T04:19:45.585Z,58.51
2017-01-13T04:20:26.060Z,58.8
2017-01-13T04:21:06.655Z,58.61
2017-01-13T04:21:47.077Z,59.17
2017-01-13T04:22:27.640Z,59.08
2017-01-13T04:23:08.544Z,59.36
2017-01-13T04:23:48.621Z,58.8
2017-01-13T04:24:29.101Z,58.98
2017-01-13T04:25:09.573Z,59.17
2017-01-13T04:27:23.094Z,59.36
2017-01-13T04:28:03.446Z,59.36
2017-01-13T04:28:43.925Z,60.22
2017-01-13T04:29:24.389Z,60.5
2017-01-13T04:30:04.890Z,60.22
2017-01-13T04:30:45.392Z,60.6
2017-01-13T04:31:25.859Z,60.31
2017-01-13T04:32:06.354Z,60.31
2017-01-13T04:32:46.844Z,60.22
2017-01-13T04:33:27.338Z,60.79
2017-01-13T04:34:07.819Z,61.17
2017-01-13T04:34:48.317Z,60.98
2017-01-13T04:35:28.909Z,60.98
2017-01-13T04:36:09.415Z,60.88
2017-01-13T04:36:49.955Z,60.98
2017-01-13T04:37:30.365Z,60.41
2017-01-13T04:38:10.863Z,59.84
2017-01-13T04:38:51.317Z,59.84
2017-01-13T04:39:31.835Z,59.65
2017-01-13T04:40:12.317Z,59.36
2017-01-13T04:40:52.774Z,60.03
2017-01-13T04:41:33.342Z,60.31
2017-01-13T04:42:13.912Z,60.6
2017-01-13T04:42:54.392Z,60.41
2017-01-13T04:43:34.880Z,60.6
2017-01-13T04:44:15.342Z,60.22
2017-01-13T04:44:55.920Z,60.6
2017-01-13T04:45:36.466Z,60.6
2017-01-13T04:46:16.933Z,60.41
2017-01-13T04:46:57.467Z,59.74
2017-01-13T04:47:37.934Z,60.31
2017-01-13T04:48:18.438Z,60.13
2017-01-13T04:48:58.933Z,59.84
2017-01-13T04:49:39.424Z,60.41
2017-01-13T04:50:19.925Z,60.31
2017-01-13T04:51:00.390Z,60.47
2017-01-13T04:51:40.852Z,60.41
2017-01-13T04:52:21.438Z,60.13
2017-01-13T04:53:01.903Z,60.41
2017-01-13T04:53:42.425Z,60.03
2017-01-13T04:54:22.883Z,59.46
2017-01-13T04:55:03.394Z,59.55
2017-01-13T04:55:43.857Z,59.65
2017-01-13T04:56:24.345Z,59.43
2017-01-13T04:57:04.811Z,59.62
2017-01-13T04:57:45.304Z,59.62
2017-01-13T04:58:25.813Z,60.13
2017-01-13T04:59:06.328Z,60
2017-01-13T04:59:46.790Z,59.52
2017-01-13T05:00:27.269Z,60.19
2017-01-13T05:01:07.748Z,60.28
2017-01-13T05:01:48.252Z,59.81
2017-01-13T05:02:28.717Z,59.74
2017-01-13T05:03:09.189Z,59.74
2017-01-13T05:03:49.751Z,59.93
2017-01-13T05:04:30.315Z,59.65
2017-01-13T05:05:10.782Z,59.27
2017-01-13T05:05:51.357Z,59.27
2017-01-13T05:06:31.849Z,59.46
2017-01-13T05:07:12.269Z,59.27
2017-01-13T05:07:52.699Z,59.74
2017-01-13T05:08:33.191Z,59.55
2017-01-13T05:09:14.118Z,59.36
2017-01-13T05:09:54.585Z,58.98
2017-01-13T05:10:35.078Z,59.36
2017-01-13T05:11:15.667Z,59.27
2017-01-13T05:11:56.127Z,58.89
2017-01-13T05:12:36.594Z,58.8
2017-01-13T05:13:17.064Z,58.86
2017-01-13T05:13:57.622Z,58.98
2017-01-13T05:14:38.182Z,59.55
2017-01-13T05:15:18.616Z,59.27
2017-01-13T05:15:59.229Z,59.27
2017-01-13T05:16:39.694Z,59.36
2017-01-13T05:17:20.125Z,59.46
2017-01-13T05:18:00.649Z,59.17
2017-01-13T05:18:41.137Z,58.98
2017-01-13T05:19:21.685Z,59.17
2017-01-13T05:20:02.434Z,59.55
2017-01-13T05:20:42.866Z,59.36
2017-01-13T05:21:23.431Z,59.33
2017-01-13T05:22:03.856Z,59.27
2017-01-13T05:22:44.322Z,58.89
2017-01-13T05:23:24.805Z,58.89
2017-01-13T05:24:05.320Z,58.89
2017-01-13T05:24:45.783Z,58.8
2017-01-13T05:25:26.389Z,58.76
2017-01-13T05:26:06.759Z,58.98
2017-01-13T05:26:47.293Z,58.8
2017-01-13T05:27:28.151Z,58.98
2017-01-13T05:28:08.598Z,58.61
2017-01-13T05:28:49.057Z,58.41
2017-01-13T05:29:29.640Z,58.22
2017-01-13T05:30:10.068Z,58.58
2017-01-13T05:30:50.581Z,58.51
2017-01-13T05:31:31.112Z,58.67
2017-01-13T05:32:11.573Z,58.7
2017-01-13T05:32:52.231Z,58.58
2017-01-13T05:33:32.738Z,58.41
2017-01-13T05:34:13.254Z,58.39
2017-01-13T05:34:53.678Z,58.58
2017-01-13T05:35:34.176Z,58.1
2017-01-13T05:36:14.722Z,58.39
2017-01-13T05:36:55.190Z,58.39
2017-01-13T05:37:35.731Z,58.48
2017-01-13T05:38:16.108Z,58.2
2017-01-13T05:38:56.598Z,58
2017-01-13T05:39:37.147Z,58.2
2017-01-13T05:40:17.624Z,58.2
2017-01-13T05:40:58.111Z,57.43
2017-01-13T05:41:38.822Z,57.72
2017-01-13T05:42:19.328Z,57.53
2017-01-13T05:42:59.827Z,57.62
2017-01-13T05:43:40.325Z,57.28
2017-01-13T05:44:20.768Z,57.37
2017-01-13T05:45:01.409Z,57.37
2017-01-13T05:45:41.999Z,57.56
2017-01-13T05:46:22.529Z,57.75
2017-01-13T05:47:02.963Z,57.65
2017-01-13T05:47:43.442Z,58.41
2017-01-13T05:48:23.935Z,58.32
2017-01-13T05:49:04.456Z,58.32
2017-01-13T05:49:44.883Z,58.8
2017-01-13T05:50:25.384Z,58.39
2017-01-13T05:51:05.886Z,58.29
2017-01-13T05:51:46.645Z,58.2
2017-01-13T05:52:27.017Z,58.13
2017-01-13T05:53:07.515Z,58.86
2017-01-13T05:53:48.094Z,58.22
2017-01-13T05:54:28.516Z,58.39
2017-01-13T05:55:09.043Z,58.76
2017-01-13T05:55:49.537Z,58.67
2017-01-13T05:56:30.024Z,58.39
2017-01-13T05:57:10.564Z,58.58
2017-01-13T05:57:51.051Z,58.58
2017-01-13T05:58:31.517Z,59.14
2017-01-13T05:59:11.981Z,58.58
2017-01-13T05:59:52.536Z,58.67
2017-01-13T06:00:33.003Z,59.05
2017-01-13T06:01:13.734Z,59.05
2017-01-13T06:01:54.144Z,58.86
2017-01-13T06:02:35.779Z,58.58
2017-01-13T06:03:16.356Z,59.24
2017-01-13T06:03:57.314Z,59.24
2017-01-13T06:04:40.480Z,58.86
2017-01-13T06:05:21.611Z,58.86
2017-01-13T06:06:02.253Z,58.95
2017-01-13T06:06:43.045Z,59.14
2017-01-13T06:07:23.766Z,59.52
2017-01-13T06:09:41.888Z,59.62
2017-01-13T06:10:25.784Z,59.55
2017-01-13T06:11:06.230Z,58.98
2017-01-13T06:11:46.718Z,59.55
2017-01-13T06:13:36.673Z,58.29
2017-01-13T06:14:25.693Z,59.05
2017-01-13T06:15:13.312Z,58.89
2017-01-13T06:15:59.200Z,58.1
2017-01-13T06:16:39.642Z,58.67
2017-01-13T06:17:20.277Z,58.67
2017-01-13T06:18:00.773Z,58.98
2017-01-13T06:18:41.503Z,59.05
2017-01-13T06:19:22.331Z,58.58
2017-01-13T06:20:03.045Z,59.46
2017-01-13T06:20:44.394Z,60.88
2017-01-13T06:21:28.992Z,60.69
2017-01-13T06:22:09.325Z,61.17
2017-01-13T06:22:50.246Z,59.52
2017-01-13T06:23:30.869Z,59.05
2017-01-13T06:24:11.260Z,58.86
2017-01-13T06:24:51.815Z,60.28
2017-01-13T06:25:32.291Z,59.43
2017-01-13T06:26:12.799Z,59.14
2017-01-13T06:26:53.256Z,60.57
2017-01-13T06:27:33.900Z,60.47
2017-01-13T06:28:14.690Z,66.74
2017-01-13T06:28:55.201Z,75.6
2017-01-13T06:29:35.973Z,83.01
2017-01-13T06:30:16.475Z,85.77
2017-01-13T06:30:57.989Z,84.91
2017-01-13T06:31:37.798Z,80.07
2017-01-13T06:32:18.268Z,85.11
2017-01-13T06:32:58.854Z,82.07
2017-01-13T06:33:39.801Z,87.81
2017-01-13T06:34:20.304Z,82.64
2017-01-13T06:35:01.072Z,72.09
2017-01-13T06:35:41.827Z,66.58
2017-01-13T06:36:24.717Z,63.45
2017-01-13T06:39:42.577Z,60.79
2017-01-13T06:40:23.182Z,59.65
2017-01-13T06:41:03.914Z,64.97
2017-01-13T06:41:44.760Z,70.76
2017-01-13T06:42:25.146Z,77.79
2017-01-13T06:43:06.340Z,79.79
2017-01-13T06:43:47.320Z,77.31
2017-01-13T06:44:28.143Z,81.4
2017-01-13T06:45:08.815Z,80.07
2017-01-13T06:45:50.324Z,71.04
2017-01-13T06:46:32.348Z,63.45
2017-01-13T06:47:13.560Z,60.79
2017-01-13T06:47:54.929Z,59.17
2017-01-13T06:48:35.411Z,59.05
2017-01-13T06:49:15.973Z,59.52
2017-01-13T06:49:57.915Z,59.62
2017-01-13T06:50:38.450Z,60.38
2017-01-13T06:51:19.342Z,60.1
2017-01-13T06:51:59.551Z,59.71
2017-01-13T06:52:40.068Z,59.05
2017-01-13T06:53:20.551Z,59.24
2017-01-13T06:54:01.415Z,59.52
2017-01-13T06:54:41.865Z,59.52
2017-01-13T06:55:22.351Z,60.57
2017-01-13T06:56:02.836Z,60.38
2017-01-13T06:56:43.486Z,59.71
2017-01-13T06:57:23.982Z,59.52
2017-01-13T06:58:05.422Z,60.38
2017-01-13T06:58:45.646Z,59.52
2017-01-13T06:59:26.328Z,59.52
2017-01-13T07:00:06.846Z,59.71
2017-01-13T07:00:47.333Z,61.14
2017-01-13T07:02:45.042Z,60.1
2017-01-13T07:03:25.560Z,60.85
2017-01-13T07:04:06.068Z,60.47
2017-01-13T07:04:46.574Z,60.28
2017-01-13T07:05:27.068Z,59.52
2017-01-13T07:06:07.601Z,60.66
2017-01-13T07:06:48.095Z,59.05
2017-01-13T07:07:28.619Z,59.52
2017-01-13T07:08:09.130Z,59.33
2017-01-13T07:08:49.707Z,60.47
2017-01-13T07:09:30.261Z,61.14
2017-01-13T07:10:10.763Z,61.99
2017-01-13T07:10:51.204Z,62.37
2017-01-13T07:11:31.714Z,73.76
2017-01-13T07:12:12.200Z,87.1
2017-01-13T07:12:52.705Z,84.91
2017-01-13T07:13:33.206Z,83.97
2017-01-13T07:14:13.736Z,75.47
2017-01-13T07:14:54.248Z,77.89
2017-01-13T07:15:34.766Z,84.53
2017-01-13T07:16:15.307Z,83.87
2017-01-13T07:16:55.772Z,88.24
2017-01-13T07:17:36.264Z,92.66
2017-01-13T07:18:16.757Z,88.15
2017-01-13T07:18:57.246Z,83.87
2017-01-13T07:19:37.740Z,86.34
2017-01-13T07:20:18.284Z,90.37
2017-01-13T07:20:58.707Z,88.28
2017-01-13T07:21:39.227Z,76.75
2017-01-13T07:22:19.695Z,67.25
2017-01-13T07:23:00.208Z,62.12
2017-01-13T07:23:40.712Z,60.41
2017-01-13T07:24:21.221Z,59.55
2017-01-13T07:25:01.727Z,61.07
2017-01-13T07:25:42.226Z,72.56
2017-01-13T07:26:22.741Z,85.72
2017-01-13T07:27:03.250Z,91.52
2017-01-13T07:27:43.726Z,91.42
2017-01-13T07:28:24.259Z,89.33
2017-01-13T07:29:04.717Z,90
2017-01-13T07:29:45.218Z,90.09
2017-01-13T07:30:25.729Z,85.24
2017-01-13T07:31:06.220Z,74.75
2017-01-13T07:31:46.759Z,81.82
2017-01-13T07:32:27.209Z,86.86
2017-01-13T07:33:07.727Z,87.34
2017-01-13T07:33:48.242Z,90.75
2017-01-13T07:34:28.756Z,84.58
2017-01-13T07:35:09.238Z,74.6
2017-01-13T07:35:49.763Z,69.37
2017-01-13T07:38:08.097Z,58.32
2017-01-13T07:38:48.582Z,56.89
2017-01-13T07:39:29.085Z,57.09
2017-01-13T07:40:09.598Z,57.84
2017-01-13T07:40:50.110Z,57.46
2017-01-13T07:41:30.605Z,56.61
2017-01-13T07:42:11.085Z,56.99
2017-01-13T07:42:51.590Z,57.56
2017-01-13T07:43:32.243Z,57.09
2017-01-13T07:44:12.933Z,57.28
2017-01-13T07:44:53.687Z,57.18
2017-01-13T07:45:34.062Z,57.84
2017-01-13T07:46:14.638Z,57.18
2017-01-13T07:46:55.164Z,57.28
2017-01-13T07:47:35.627Z,58.32
2017-01-13T07:48:16.142Z,56.7
2017-01-13T07:48:56.633Z,56.7
2017-01-13T07:49:37.086Z,56.23
2017-01-13T07:51:25.502Z,55.91
2017-01-13T07:52:06.706Z,57.09
2017-01-13T07:52:47.197Z,56.42
2017-01-13T07:53:27.693Z,57.65
2017-01-13T07:54:08.230Z,59.27
2017-01-13T07:54:48.768Z,60.69
2017-01-13T07:55:30.392Z,60.22
2017-01-13T07:56:10.895Z,60.41
2017-01-13T07:56:51.402Z,59.46
2017-01-13T07:57:31.850Z,68.29
2017-01-13T07:58:12.365Z,81.73
2017-01-13T07:58:52.853Z,85.43
2017-01-13T07:59:33.307Z,87.14
2017-01-13T08:00:13.834Z,88.19
2017-01-13T08:00:54.302Z,92.51
2017-01-13T08:01:34.857Z,89.52
2017-01-13T08:02:15.319Z,91.56
2017-01-13T08:02:55.880Z,89
2017-01-13T08:03:36.386Z,86.1
2017-01-13T08:04:16.900Z,81.06
2017-01-13T08:04:57.380Z,74.88
2017-01-13T08:05:37.894Z,63.48
2017-01-13T08:06:18.422Z,59.65
2017-01-13T08:06:58.905Z,59.08
2017-01-13T08:07:39.416Z,58.54
2017-01-13T08:08:19.961Z,59.39
2017-01-13T08:09:01.622Z,58.63
2017-01-13T08:09:42.253Z,58.44
2017-01-13T08:10:22.746Z,72.99
2017-01-13T08:11:03.260Z,83.25
2017-01-13T08:11:43.776Z,86.52
2017-01-13T08:12:24.287Z,81.92
2017-01-13T08:13:04.799Z,86.9
2017-01-13T08:13:45.281Z,91.37
2017-01-13T08:14:25.781Z,91.56
2017-01-13T08:15:06.285Z,88.42
2017-01-13T08:15:46.784Z,85.47
2017-01-13T08:16:27.522Z,83.76
2017-01-13T08:17:08.013Z,89.28
2017-01-13T08:17:48.523Z,88.13
2017-01-13T08:18:29.037Z,84.05
2017-01-13T08:19:09.506Z,88.8
2017-01-13T08:19:50.033Z,91.08
2017-01-13T08:20:30.557Z,86.33
2017-01-13T08:21:11.239Z,86.71
2017-01-13T08:21:51.668Z,76.63
2017-01-13T08:22:32.167Z,69.6
2017-01-13T08:23:12.694Z,65.51
2017-01-13T08:23:54.141Z,63.79
2017-01-13T08:24:34.636Z,61.8
2017-01-13T08:25:15.159Z,59.42
2017-01-13T08:25:55.719Z,57.78
2017-01-13T08:26:36.214Z,57.02
2017-01-13T08:27:16.702Z,58.25
2017-01-13T08:27:57.241Z,57.11
2017-01-13T08:28:37.688Z,66.05
2017-01-13T08:29:18.195Z,71.75
2017-01-13T08:29:58.678Z,78.16
2017-01-13T08:30:39.176Z,73.88
2017-01-13T08:31:19.667Z,72.7
2017-01-13T08:32:00.198Z,67.94
2017-01-13T08:32:40.654Z,75.64
2017-01-13T08:33:21.126Z,77.68
2017-01-13T08:34:03.008Z,75.59
2017-01-13T08:34:43.473Z,66.84
2017-01-13T08:35:23.981Z,61.2
2017-01-13T08:36:04.490Z,58.57
2017-01-13T08:36:44.974Z,55.69
2017-01-13T08:37:25.454Z,55.21
2017-01-13T08:38:06.011Z,55.11
2017-01-13T08:38:46.440Z,55.4
2017-01-13T08:39:26.987Z,55.69
2017-01-13T08:40:07.418Z,54.93
2017-01-13T08:40:47.951Z,54.83
2017-01-13T08:41:28.453Z,55.69
2017-01-13T08:42:09.122Z,55.5
2017-01-13T08:42:49.604Z,55.11
2017-01-13T08:43:30.115Z,55.97
2017-01-13T08:44:10.650Z,55.4
2017-01-13T08:44:51.147Z,54.17
2017-01-13T08:45:31.809Z,55.59
2017-01-13T08:46:12.297Z,56.73
2017-01-13T08:46:52.836Z,55.97
2017-01-13T08:47:33.322Z,56.83
2017-01-13T08:48:13.800Z,56.54
2017-01-13T08:48:54.271Z,58.73
2017-01-13T08:49:34.766Z,59.68
2017-01-13T08:50:15.223Z,60.63
2017-01-13T08:50:55.730Z,62.53
2017-01-13T08:52:49.104Z,83.39
2017-01-13T08:53:29.639Z,87.85
2017-01-13T08:54:10.198Z,85.47
2017-01-13T08:54:50.649Z,83.58
2017-01-13T08:55:31.162Z,78.16
2017-01-13T08:56:11.646Z,78.72
2017-01-13T08:56:52.894Z,82.05